createdAt,value
2023-09-14T00:00:45.491Z,49.20
2023-09-14T00:03:15.374Z,49.30
2023-09-14T00:05:43.999Z,49.40
2023-09-14T00:08:13.397Z,49.50
2023-09-14T00:10:42.364Z,48.90
2023-09-14T00:13:11.789Z,49.60
2023-09-14T00:15:40.166Z,49.70
2023-09-14T00:18:08.401Z,49.80
2023-09-14T00:20:37.926Z,49.90
2023-09-14T00:23:06.307Z,49.90
2023-09-14T00:25:34.477Z,50.00
2023-09-14T00:28:02.617Z,50.00
2023-09-14T00:30:30.800Z,50.00
2023-09-14T00:32:58.935Z,50.10
2023-09-14T00:35:27.070Z,50.20
2023-09-14T00:37:56.519Z,50.20
2023-09-14T00:40:25.506Z,50.30
2023-09-14T00:42:53.690Z,50.30
2023-09-14T00:45:22.996Z,50.30
2023-09-14T00:47:53.888Z,50.30
2023-09-14T00:50:22.788Z,50.30
2023-09-14T00:52:54.383Z,50.40
2023-09-14T00:55:24.683Z,50.40
2023-09-14T00:57:53.975Z,50.50
2023-09-14T01:00:22.797Z,50.50
2023-09-14T01:02:54.151Z,50.50
2023-09-14T01:05:22.728Z,50.50
2023-09-14T01:07:50.875Z,50.60
2023-09-14T01:10:19.182Z,50.50
2023-09-14T01:12:49.677Z,50.70
2023-09-14T01:15:21.727Z,50.80
2023-09-14T01:18:03.751Z,50.80
2023-09-14T01:20:52.494Z,50.90
2023-09-14T01:23:38.630Z,50.80
2023-09-14T01:26:08.991Z,50.90
2023-09-14T01:28:37.058Z,50.90
2023-09-14T01:31:05.210Z,50.90
2023-09-14T01:33:33.747Z,51.10
2023-09-14T01:36:08.044Z,51.00
2023-09-14T01:38:38.072Z,51.10
2023-09-14T01:41:08.730Z,51.10
2023-09-14T01:43:37.381Z,51.10
2023-09-14T01:46:06.378Z,51.10
2023-09-14T01:48:34.604Z,51.20
2023-09-14T01:51:02.699Z,51.30
2023-09-14T01:53:30.787Z,51.30
2023-09-14T01:55:59.071Z,51.30
2023-09-14T01:58:28.505Z,51.40
2023-09-14T02:00:57.647Z,51.40
2023-09-14T02:03:25.813Z,51.40
2023-09-14T02:05:59.190Z,51.40
2023-09-14T02:08:27.933Z,51.50
2023-09-14T02:10:57.263Z,51.50
2023-09-14T02:13:28.426Z,51.50
2023-09-14T02:15:56.741Z,51.60
2023-09-14T02:18:24.941Z,51.60
2023-09-14T02:20:53.037Z,51.60
2023-09-14T02:23:21.126Z,51.60
2023-09-14T02:25:50.659Z,51.70
2023-09-14T02:28:20.658Z,51.70
2023-09-14T02:30:50.599Z,51.80
2023-09-14T02:33:18.877Z,51.90
2023-09-14T02:35:51.963Z,51.80
2023-09-14T02:38:20.171Z,52.00
2023-09-14T02:40:48.272Z,52.00
2023-09-14T02:43:16.436Z,52.00
2023-09-14T02:45:44.702Z,52.00
2023-09-14T02:48:14.205Z,51.90
2023-09-14T02:50:42.281Z,52.00
2023-09-14T02:53:10.404Z,52.00
2023-09-14T02:55:38.470Z,52.10
2023-09-14T02:58:09.762Z,52.00
2023-09-14T03:00:40.295Z,52.10
2023-09-14T03:03:10.969Z,52.10
2023-09-14T03:05:40.747Z,52.20
2023-09-14T03:08:08.882Z,52.20
2023-09-14T03:10:37.235Z,52.20
2023-09-14T03:13:06.061Z,52.20
2023-09-14T03:15:35.994Z,52.20
2023-09-14T03:18:04.416Z,52.20
2023-09-14T03:20:32.544Z,52.20
2023-09-14T03:23:03.720Z,52.20
2023-09-14T03:25:31.831Z,52.20
2023-09-14T03:27:59.914Z,52.30
2023-09-14T03:30:28.088Z,52.30
2023-09-14T03:32:56.168Z,52.30
2023-09-14T03:35:24.236Z,52.40
2023-09-14T03:37:52.361Z,52.40
2023-09-14T03:40:21.926Z,52.40
2023-09-14T03:42:51.172Z,52.40
2023-09-14T03:45:19.258Z,52.40
2023-09-14T03:47:50.543Z,52.40
2023-09-14T03:50:18.753Z,52.50
2023-09-14T03:52:46.907Z,52.50
2023-09-14T03:55:15.066Z,52.50
2023-09-14T03:57:48.769Z,52.50
2023-09-14T04:00:17.985Z,52.50
2023-09-14T04:02:46.177Z,52.60
2023-09-14T04:05:15.896Z,52.60
2023-09-14T04:07:44.104Z,52.60
2023-09-14T04:10:12.929Z,52.60
2023-09-14T04:12:41.457Z,52.60
2023-09-14T04:15:12.910Z,52.70
2023-09-14T04:17:41.263Z,52.70
2023-09-14T04:20:11.188Z,52.70
2023-09-14T04:22:39.740Z,52.80
2023-09-14T04:25:08.941Z,52.80
2023-09-14T04:27:37.089Z,52.80
2023-09-14T04:30:06.171Z,52.70
2023-09-14T04:32:35.644Z,52.80
2023-09-14T04:35:04.675Z,52.80
2023-09-14T04:37:33.175Z,52.80
2023-09-14T04:40:01.336Z,52.80
2023-09-14T04:42:29.445Z,52.80
2023-09-14T04:44:57.681Z,52.90
2023-09-14T04:47:25.817Z,52.80
2023-09-14T04:49:55.272Z,52.80
2023-09-14T04:52:23.385Z,52.80
2023-09-14T04:54:51.672Z,52.80
2023-09-14T04:57:19.806Z,52.90
2023-09-14T04:59:47.878Z,52.90
2023-09-14T05:02:16.470Z,52.90
2023-09-14T05:04:44.823Z,53.00
2023-09-14T05:07:14.351Z,53.00
2023-09-14T05:09:42.522Z,53.00
2023-09-14T05:12:10.929Z,53.00
2023-09-14T05:14:39.004Z,53.00
2023-09-14T05:17:07.111Z,53.00
2023-09-14T05:19:35.295Z,53.00
2023-09-14T05:22:03.437Z,53.00
2023-09-14T05:24:33.060Z,53.00
2023-09-14T05:27:02.014Z,53.10
2023-09-14T05:29:30.464Z,53.10
2023-09-14T05:31:58.902Z,53.10
2023-09-14T05:34:26.992Z,53.10
2023-09-14T05:36:55.097Z,53.10
2023-09-14T05:39:23.207Z,53.10
2023-09-14T05:41:52.720Z,53.00
2023-09-14T05:44:20.770Z,53.10
2023-09-14T05:46:48.997Z,53.00
2023-09-14T05:49:17.144Z,53.60
2023-09-14T05:51:45.334Z,53.00
2023-09-14T05:54:13.463Z,53.10
2023-09-14T05:56:41.528Z,53.60
2023-09-14T05:59:25.604Z,52.90
2023-09-14T06:01:54.263Z,53.00
2023-09-14T06:04:22.436Z,52.90
2023-09-14T06:06:50.792Z,53.00
2023-09-14T06:09:19.000Z,52.90
2023-09-14T06:11:47.109Z,52.90
2023-09-14T06:14:16.542Z,52.90
2023-09-14T06:16:44.666Z,52.80
2023-09-14T06:19:13.004Z,52.80
2023-09-14T06:21:41.441Z,52.80
2023-09-14T06:24:10.110Z,52.70
2023-09-14T06:26:38.300Z,52.70
2023-09-14T06:29:06.497Z,52.70
2023-09-14T06:31:35.981Z,52.70
2023-09-14T06:34:04.259Z,52.60
2023-09-14T06:36:32.554Z,52.50
2023-09-14T06:39:00.613Z,52.50
2023-09-14T06:41:28.752Z,52.40
2023-09-14T06:43:56.830Z,52.50
2023-09-14T06:46:24.948Z,52.50
2023-09-14T06:48:54.526Z,52.50
2023-09-14T06:51:22.646Z,52.50
2023-09-14T06:53:52.531Z,52.50
2023-09-14T06:56:20.686Z,52.40
2023-09-14T06:58:48.885Z,52.40
2023-09-14T07:01:17.053Z,52.40
2023-09-14T07:03:45.617Z,52.50
2023-09-14T07:06:15.373Z,52.50
2023-09-14T07:08:43.523Z,52.50
2023-09-14T07:11:11.658Z,52.50
2023-09-14T07:13:39.898Z,52.40
2023-09-14T07:52:47.268Z,51.20
2023-09-14T07:55:15.443Z,53.50
2023-09-14T07:57:43.579Z,53.20
2023-09-14T08:00:12.759Z,53.10
2023-09-14T08:02:40.941Z,52.90
2023-09-14T08:05:10.064Z,52.70
2023-09-14T08:07:38.380Z,52.60
2023-09-14T08:10:09.928Z,52.50
2023-09-14T08:12:38.555Z,52.50
2023-09-14T08:15:07.937Z,52.40
2023-09-14T08:17:36.075Z,52.40
2023-09-14T08:20:05.033Z,52.40
2023-09-14T08:22:33.338Z,52.30
2023-09-14T08:25:02.673Z,52.30
2023-09-14T08:27:32.351Z,52.30
2023-09-14T08:30:00.427Z,52.30
2023-09-14T08:32:30.823Z,52.30
2023-09-14T08:35:00.156Z,52.30
2023-09-14T08:37:28.279Z,52.30
2023-09-14T08:39:56.411Z,52.20
2023-09-14T08:42:26.740Z,52.20
2023-09-14T08:44:57.710Z,52.10
2023-09-14T08:47:26.587Z,52.10
2023-09-14T08:49:56.589Z,52.10
2023-09-14T08:52:25.570Z,52.00
2023-09-14T08:54:55.289Z,51.90
2023-09-14T08:57:23.502Z,52.00
2023-09-14T08:59:52.509Z,51.90
2023-09-14T09:02:23.199Z,51.90
2023-09-14T09:04:51.362Z,51.80
2023-09-14T09:07:20.249Z,51.80
2023-09-14T09:09:50.904Z,51.70
2023-09-14T09:12:19.781Z,51.70
2023-09-14T09:14:49.840Z,51.70
2023-09-14T09:17:17.952Z,51.60
2023-09-14T09:19:53.700Z,51.60
2023-09-14T09:22:22.466Z,51.50
2023-09-14T09:24:50.641Z,51.40
2023-09-14T09:27:27.593Z,51.30
2023-09-14T09:29:59.931Z,51.40
2023-09-14T09:32:28.063Z,51.40
2023-09-14T09:34:57.539Z,51.30
2023-09-14T09:37:26.414Z,51.20
2023-09-14T09:39:55.853Z,51.10
2023-09-14T09:42:24.124Z,51.00
2023-09-14T09:44:59.534Z,51.00
2023-09-14T09:47:27.635Z,50.90
2023-09-14T09:49:57.203Z,50.80
2023-09-14T09:52:25.414Z,50.80
2023-09-14T09:54:53.597Z,50.60
2023-09-14T09:57:22.003Z,50.50
2023-09-14T09:59:52.142Z,50.30
2023-09-14T10:02:30.820Z,50.10
2023-09-14T10:05:00.463Z,49.80
2023-09-14T10:07:28.762Z,49.60
2023-09-14T10:09:57.150Z,49.40
2023-09-14T10:12:26.849Z,49.00
2023-09-14T10:14:56.810Z,48.60
2023-09-14T10:17:25.374Z,48.20
2023-09-14T10:19:54.249Z,48.40
2023-09-14T10:22:26.429Z,47.80
2023-09-14T10:24:56.017Z,47.90
2023-09-14T10:27:25.040Z,48.20
2023-09-14T10:29:57.280Z,48.10
2023-09-14T10:32:27.717Z,47.70
2023-09-14T10:35:06.221Z,47.10
2023-09-14T10:37:37.577Z,46.60
2023-09-14T10:42:34.870Z,44.90
2023-09-14T10:45:03.567Z,45.10
2023-09-14T10:47:37.791Z,44.80
2023-09-14T10:50:07.460Z,44.40
2023-09-14T10:52:38.544Z,44.00
2023-09-14T10:55:10.233Z,43.60
2023-09-14T10:57:42.627Z,43.20
2023-09-14T11:00:50.403Z,43.00
2023-09-14T11:03:22.730Z,42.80
2023-09-14T11:05:55.120Z,42.40
2023-09-14T11:08:32.085Z,42.10
2023-09-14T11:11:04.473Z,41.60
2023-09-14T11:13:37.086Z,41.20
2023-09-14T11:16:28.848Z,40.90
2023-09-14T11:18:59.198Z,40.50
2023-09-14T11:21:45.496Z,40.20
2023-09-14T11:24:17.439Z,39.50
2023-09-14T11:26:50.048Z,39.40
2023-09-14T11:29:22.937Z,39.60
2023-09-14T11:32:02.152Z,38.60
2023-09-14T11:34:39.793Z,38.10
2023-09-14T11:37:15.934Z,38.00
2023-09-14T11:39:59.193Z,37.90
2023-09-14T11:42:34.023Z,37.50
2023-09-14T11:45:12.188Z,37.40
2023-09-14T11:47:45.997Z,37.00
2023-09-14T11:50:15.244Z,36.60
2023-09-14T11:52:44.372Z,36.20
2023-09-14T11:55:21.180Z,35.90
2023-09-14T11:57:50.022Z,35.40
2023-09-14T12:00:18.510Z,35.60
2023-09-14T12:02:46.711Z,35.80
2023-09-14T12:05:17.105Z,36.20
2023-09-14T12:07:45.321Z,36.40
2023-09-14T12:10:21.950Z,36.30
2023-09-14T12:12:50.372Z,36.40
2023-09-14T12:15:22.141Z,36.30
2023-09-14T12:17:54.435Z,35.20
2023-09-14T12:20:23.015Z,35.60
2023-09-14T12:22:51.136Z,35.30
2023-09-14T12:25:21.043Z,35.10
2023-09-14T12:27:49.640Z,35.10
2023-09-14T12:30:18.654Z,35.40
2023-09-14T12:32:46.935Z,35.60
2023-09-14T12:35:17.469Z,36.00
2023-09-14T12:37:46.469Z,36.50
2023-09-14T12:40:15.281Z,36.80
2023-09-14T12:42:45.615Z,37.00
2023-09-14T12:45:16.232Z,37.20
2023-09-14T12:47:46.023Z,37.30
2023-09-14T12:50:17.904Z,37.60
2023-09-14T12:52:46.888Z,37.70
2023-09-14T12:55:17.194Z,37.90
2023-09-14T12:57:51.273Z,38.10
2023-09-14T13:00:24.704Z,38.30
2023-09-14T13:02:53.866Z,38.50
2023-09-14T13:05:26.393Z,38.80
2023-09-14T13:07:55.919Z,38.90
2023-09-14T13:10:25.053Z,39.10
2023-09-14T13:12:56.567Z,39.10
2023-09-14T13:15:26.054Z,39.20
2023-09-14T13:17:56.129Z,39.30
2023-09-14T13:20:25.527Z,39.30
2023-09-14T13:22:53.944Z,39.40
2023-09-14T13:25:23.981Z,39.50
2023-09-14T13:27:52.105Z,40.30
2023-09-14T13:30:22.860Z,39.60
2023-09-14T13:32:52.229Z,39.80
2023-09-14T13:35:21.994Z,39.90
2023-09-14T13:37:52.945Z,40.10
2023-09-14T13:40:23.862Z,40.20
2023-09-14T13:42:54.485Z,40.30
2023-09-14T13:45:24.350Z,40.40
2023-09-14T13:47:53.155Z,40.40
2023-09-14T13:50:22.312Z,40.40
2023-09-14T13:52:51.351Z,40.40
2023-09-14T13:55:19.919Z,40.40
2023-09-14T13:57:49.142Z,40.40
2023-09-14T14:00:18.954Z,40.40
2023-09-14T14:02:50.422Z,40.50
2023-09-14T14:05:19.446Z,40.50
2023-09-14T14:07:47.726Z,40.60
2023-09-14T14:10:16.003Z,40.60
2023-09-14T14:12:44.555Z,40.50
2023-09-14T14:15:13.481Z,40.60
2023-09-14T14:17:41.870Z,40.60
2023-09-14T14:20:12.353Z,40.70
2023-09-14T14:22:40.580Z,40.80
2023-09-14T14:25:09.867Z,40.90
2023-09-14T14:27:42.208Z,40.90
2023-09-14T14:30:11.646Z,41.00
2023-09-14T14:32:40.025Z,40.90
2023-09-14T14:35:10.084Z,41.00
2023-09-14T14:37:39.849Z,41.00
2023-09-14T14:40:28.648Z,41.10
2023-09-14T14:42:59.887Z,41.20
2023-09-14T14:45:28.606Z,41.30
2023-09-14T14:47:56.906Z,41.40
2023-09-14T14:50:25.020Z,41.60
2023-09-14T14:52:54.530Z,41.70
2023-09-14T14:55:24.577Z,41.80
2023-09-14T14:57:53.304Z,41.90
2023-09-14T15:00:21.754Z,42.00
2023-09-14T15:02:49.930Z,42.10
2023-09-14T15:05:18.328Z,42.10
2023-09-14T15:07:47.173Z,42.20
2023-09-14T15:10:16.978Z,42.30
2023-09-14T15:12:45.221Z,42.30
2023-09-14T15:15:14.485Z,42.40
2023-09-14T15:17:43.018Z,42.40
2023-09-14T15:20:12.598Z,42.50
2023-09-14T15:22:40.708Z,42.50
2023-09-14T15:25:09.463Z,42.60
2023-09-14T15:27:39.041Z,42.60
2023-09-14T15:30:12.254Z,42.70
2023-09-14T15:32:43.889Z,42.70
2023-09-14T15:35:13.463Z,42.80
2023-09-14T15:37:42.132Z,42.80
2023-09-14T15:40:11.054Z,42.90
2023-09-14T15:42:40.562Z,43.00
2023-09-14T15:45:09.794Z,43.00
2023-09-14T15:47:37.909Z,43.00
2023-09-14T15:50:08.595Z,43.10
2023-09-14T15:52:36.711Z,43.10
2023-09-14T15:55:08.994Z,43.20
2023-09-14T15:57:43.821Z,43.20
2023-09-14T16:00:12.923Z,43.30
2023-09-14T16:02:41.107Z,43.30
2023-09-14T16:05:09.518Z,43.30
2023-09-14T16:07:41.493Z,43.40
2023-09-14T16:10:12.693Z,43.50
2023-09-14T16:12:46.337Z,43.50
2023-09-14T16:15:16.338Z,43.60
2023-09-14T16:17:50.236Z,43.70
2023-09-14T16:20:21.234Z,43.80
2023-09-14T16:22:51.975Z,43.90
2023-09-14T16:25:25.178Z,43.90
2023-09-14T16:27:55.370Z,44.10
2023-09-14T16:30:23.650Z,44.10
2023-09-14T16:32:52.615Z,44.10
2023-09-14T16:35:20.972Z,44.20
2023-09-14T16:37:49.992Z,44.30
2023-09-14T16:40:18.208Z,44.30
2023-09-14T16:42:50.794Z,45.00
2023-09-14T16:45:22.646Z,44.40
2023-09-14T16:47:52.258Z,44.40
2023-09-14T16:50:24.876Z,44.50
2023-09-14T16:52:55.889Z,44.60
2023-09-14T16:55:24.160Z,44.80
2023-09-14T16:57:52.437Z,44.70
2023-09-14T17:00:22.744Z,44.80
2023-09-14T17:02:52.937Z,44.90
2023-09-14T17:05:21.194Z,45.10
2023-09-14T17:07:49.591Z,45.30
2023-09-14T17:10:19.783Z,45.50
2023-09-14T17:12:47.889Z,45.70
2023-09-14T17:15:16.106Z,45.90
2023-09-14T17:17:46.134Z,46.10
2023-09-14T17:20:14.394Z,46.30
2023-09-14T17:22:42.525Z,46.40
2023-09-14T17:25:11.929Z,46.60
2023-09-14T17:27:40.960Z,46.70
2023-09-14T17:30:09.917Z,46.80
2023-09-14T17:32:38.049Z,46.90
2023-09-14T17:35:10.568Z,47.10
2023-09-14T17:37:38.808Z,47.20
2023-09-14T17:40:10.036Z,47.20
2023-09-14T17:42:38.252Z,47.30
2023-09-14T17:45:07.256Z,47.40
2023-09-14T17:47:35.324Z,47.50
2023-09-14T17:50:06.090Z,47.60
2023-09-14T17:52:36.110Z,47.70
2023-09-14T17:55:04.750Z,47.80
2023-09-14T17:57:32.997Z,47.80
2023-09-14T18:00:01.082Z,47.90
2023-09-14T18:02:29.176Z,48.00
2023-09-14T18:04:58.116Z,48.10
2023-09-14T18:07:26.258Z,48.20
2023-09-14T18:09:55.766Z,48.30
2023-09-14T18:12:23.907Z,48.40
2023-09-14T18:14:52.088Z,48.50
2023-09-14T18:17:20.248Z,48.60
2023-09-14T18:19:48.307Z,49.00
2023-09-14T18:22:16.678Z,49.10
2023-09-14T18:24:49.475Z,49.10
2023-09-14T18:27:19.099Z,49.30
2023-09-14T18:29:48.989Z,49.30
2023-09-14T18:32:17.170Z,49.50
2023-09-14T18:34:47.283Z,49.80
2023-09-14T18:37:15.504Z,49.50
2023-09-14T18:39:43.870Z,49.60
2023-09-14T18:42:12.031Z,49.80
2023-09-14T18:44:42.752Z,50.00
2023-09-14T18:47:11.294Z,49.90
2023-09-14T18:49:39.394Z,50.70
2023-09-14T18:52:08.105Z,50.00
2023-09-14T18:54:36.269Z,50.10
2023-09-14T18:57:04.665Z,50.20
2023-09-14T18:59:34.415Z,50.20
2023-09-14T19:02:05.595Z,50.00
2023-09-14T19:04:34.196Z,50.10
2023-09-14T19:07:03.073Z,50.10
2023-09-14T19:09:31.302Z,50.20
2023-09-14T19:11:59.463Z,50.10
2023-09-14T19:14:27.516Z,50.20
2023-09-14T19:16:55.650Z,50.30
2023-09-14T19:19:25.174Z,50.30
2023-09-14T19:21:53.818Z,50.30
2023-09-14T19:24:24.060Z,50.30
2023-09-14T19:26:56.156Z,49.80
2023-09-14T19:29:24.377Z,50.30
2023-09-14T19:31:54.866Z,50.50
2023-09-14T19:34:24.463Z,50.50
2023-09-14T19:36:52.595Z,50.50
2023-09-14T19:39:20.702Z,50.60
2023-09-14T19:41:48.913Z,50.60
2023-09-14T19:44:16.991Z,50.80
2023-09-14T19:46:45.353Z,50.90
2023-09-14T19:49:13.538Z,50.90
2023-09-14T19:51:43.062Z,51.00
2023-09-14T19:54:11.380Z,51.10
2023-09-14T19:56:39.441Z,51.10
2023-09-14T19:59:07.587Z,51.20
2023-09-14T20:01:35.682Z,51.20
2023-09-14T20:04:04.319Z,51.30
2023-09-14T20:06:32.810Z,51.40
2023-09-14T20:09:02.293Z,51.40
2023-09-14T20:11:30.798Z,51.50
2023-09-14T20:13:58.990Z,51.50
2023-09-14T20:16:27.181Z,51.60
2023-09-14T20:18:55.478Z,51.70
2023-09-14T20:21:23.976Z,51.70
2023-09-14T20:23:52.036Z,51.80
2023-09-14T20:26:21.538Z,51.90
2023-09-14T20:28:49.808Z,52.00
2023-09-14T20:31:17.992Z,52.10
2023-09-14T20:33:46.128Z,52.10
2023-09-14T20:36:14.425Z,52.20
2023-09-14T20:38:43.366Z,52.20
2023-09-14T20:41:13.357Z,52.20
2023-09-14T20:43:44.978Z,52.30
2023-09-14T20:46:14.501Z,52.40
2023-09-14T20:48:42.745Z,52.40
2023-09-14T20:51:11.120Z,52.40
2023-09-14T20:53:40.544Z,52.50
2023-09-14T20:56:10.332Z,52.40
2023-09-14T20:58:39.591Z,52.50
2023-09-14T21:01:15.647Z,52.60
2023-09-14T21:03:44.271Z,52.70
2023-09-14T21:06:14.152Z,52.70
2023-09-14T21:08:43.370Z,52.80
2023-09-14T21:11:11.573Z,52.80
2023-09-14T21:13:39.620Z,52.80
2023-09-14T21:16:07.833Z,52.90
2023-09-14T21:18:37.526Z,53.00
2023-09-14T21:21:05.690Z,53.10
2023-09-14T21:23:33.775Z,53.10
2023-09-14T21:26:02.183Z,53.10
2023-09-14T21:28:30.402Z,53.20
2023-09-14T21:30:59.210Z,53.30
2023-09-14T21:33:27.564Z,53.40
2023-09-14T21:35:57.956Z,53.50
2023-09-14T21:38:27.376Z,53.60
2023-09-14T21:41:00.020Z,53.60
2023-09-14T21:43:29.768Z,53.70
2023-09-14T21:45:58.195Z,53.80
2023-09-14T21:48:26.668Z,53.80
2023-09-14T21:50:56.386Z,53.90
2023-09-14T21:53:24.509Z,54.00
2023-09-14T21:55:52.605Z,53.90
2023-09-14T21:58:20.671Z,54.00
2023-09-14T22:00:48.838Z,54.10
2023-09-14T22:03:17.114Z,54.20
2023-09-14T22:05:49.801Z,54.30
2023-09-14T22:08:19.346Z,54.30
2023-09-14T22:10:48.268Z,54.40
2023-09-14T22:13:17.781Z,54.50
2023-09-14T22:15:46.765Z,54.60
2023-09-14T22:18:14.934Z,54.50
2023-09-14T22:20:44.105Z,54.60
2023-09-14T22:23:12.348Z,54.70
2023-09-14T22:25:42.308Z,54.80
2023-09-14T22:28:10.738Z,54.90
2023-09-14T22:30:38.905Z,54.90
2023-09-14T22:33:07.278Z,54.90
2023-09-14T22:35:35.370Z,54.90
2023-09-14T22:38:07.336Z,55.00
2023-09-14T22:40:35.695Z,55.00
2023-09-14T22:43:05.411Z,55.10
2023-09-14T22:45:33.552Z,55.10
2023-09-14T22:48:01.785Z,55.20
2023-09-14T22:50:29.905Z,55.20
2023-09-14T22:52:58.409Z,55.20
2023-09-14T22:55:26.580Z,55.30
2023-09-14T22:57:55.253Z,55.30
2023-09-14T23:00:25.322Z,55.30
2023-09-14T23:02:53.548Z,55.40
2023-09-14T23:05:21.782Z,55.40
2023-09-14T23:07:50.265Z,55.50
2023-09-14T23:10:19.492Z,55.50
2023-09-14T23:12:48.418Z,55.50
2023-09-14T23:15:17.728Z,55.60
2023-09-14T23:17:51.302Z,55.50
2023-09-14T23:20:25.054Z,55.60
2023-09-14T23:22:54.898Z,55.60
2023-09-14T23:25:23.940Z,55.60
2023-09-14T23:27:53.131Z,55.70
2023-09-14T23:30:22.902Z,55.70
2023-09-14T23:32:53.592Z,55.70
2023-09-14T23:35:23.654Z,55.80
2023-09-14T23:37:53.599Z,55.80
2023-09-14T23:40:34.249Z,55.90
2023-09-14T23:43:02.916Z,56.00
2023-09-14T23:45:31.037Z,56.00
2023-09-14T23:48:01.113Z,56.10
2023-09-14T23:50:29.541Z,56.00
2023-09-14T23:52:58.146Z,56.10
2023-09-14T23:55:28.218Z,56.10
2023-09-14T23:57:56.631Z,56.10
